sensor_id;sensor_type;location;lat;lon;timestamp;P1;durP1;ratioP1;P2;durP2;ratioP2
20203;SDS011;10261;49.010;12.034;2023-06-26T00:00:19;15.35;;;5.07;;
20203;SDS011;10261;49.010;12.034;2023-06-26T00:01:22;7.32;;;4.95;;
20203;SDS011;10261;49.010;12.034;2023-06-26T00:02:24;7.75;;;5.35;;
20203;SDS011;10261;49.010;12.034;2023-06-26T00:03:28;6.97;;;5.80;;
20203;SDS011;10261;49.010;12.034;2023-06-26T00:04:30;7.60;;;5.40;;
20203;SDS011;10261;49.010;12.034;2023-06-26T00:05:33;7.43;;;6.15;;
20203;SDS011;10261;49.010;12.034;2023-06-26T00:06:35;5.85;;;5.15;;
20203;SDS011;10261;49.010;12.034;2023-06-26T00:07:39;7.75;;;5.72;;
20203;SDS011;10261;49.010;12.034;2023-06-26T00:08:41;6.55;;;4.90;;
20203;SDS011;10261;49.010;12.034;2023-06-26T00:09:44;7.35;;;5.57;;
20203;SDS011;10261;49.010;12.034;2023-06-26T00:10:47;6.35;;;5.38;;
20203;SDS011;10261;49.010;12.034;2023-06-26T00:11:52;10.02;;;6.38;;
20203;SDS011;10261;49.010;12.034;2023-06-26T00:12:54;6.88;;;5.18;;
20203;SDS011;10261;49.010;12.034;2023-06-26T00:13:57;7.75;;;4.95;;
20203;SDS011;10261;49.010;12.034;2023-06-26T00:15:01;7.07;;;5.90;;
20203;SDS011;10261;49.010;12.034;2023-06-26T00:16:04;7.55;;;5.13;;
20203;SDS011;10261;49.010;12.034;2023-06-26T00:17:06;6.50;;;5.78;;
20203;SDS011;10261;49.010;12.034;2023-06-26T00:18:09;7.80;;;5.78;;
20203;SDS011;10261;49.010;12.034;2023-06-26T00:19:12;10.23;;;6.68;;
20203;SDS011;10261;49.010;12.034;2023-06-26T00:20:15;11.07;;;6.13;;
20203;SDS011;10261;49.010;12.034;2023-06-26T00:21:17;8.68;;;5.97;;
20203;SDS011;10261;49.010;12.034;2023-06-26T00:22:21;7.85;;;5.65;;
20203;SDS011;10261;49.010;12.034;2023-06-26T00:23:23;6.22;;;4.93;;
20203;SDS011;10261;49.010;12.034;2023-06-26T00:24:26;8.57;;;5.45;;
20203;SDS011;10261;49.010;12.034;2023-06-26T00:25:28;6.10;;;5.40;;
20203;SDS011;10261;49.010;12.034;2023-06-26T00:26:30;6.20;;;5.05;;
20203;SDS011;10261;49.010;12.034;2023-06-26T00:27:32;8.27;;;6.22;;
20203;SDS011;10261;49.010;12.034;2023-06-26T00:28:35;7.30;;;5.57;;
20203;SDS011;10261;49.010;12.034;2023-06-26T00:29:37;8.00;;;5.35;;
20203;SDS011;10261;49.010;12.034;2023-06-26T00:30:41;9.98;;;6.55;;
20203;SDS011;10261;49.010;12.034;2023-06-26T00:31:43;6.47;;;5.28;;
20203;SDS011;10261;49.010;12.034;2023-06-26T00:32:46;6.68;;;5.55;;
20203;SDS011;10261;49.010;12.034;2023-06-26T00:33:48;7.15;;;5.35;;
20203;SDS011;10261;49.010;12.034;2023-06-26T00:34:52;6.18;;;5.57;;
20203;SDS011;10261;49.010;12.034;2023-06-26T00:35:54;6.95;;;5.05;;
20203;SDS011;10261;49.010;12.034;2023-06-26T00:36:57;6.38;;;5.13;;
20203;SDS011;10261;49.010;12.034;2023-06-26T00:37:59;10.25;;;6.25;;
20203;SDS011;10261;49.010;12.034;2023-06-26T00:39:02;7.85;;;5.47;;
20203;SDS011;10261;49.010;12.034;2023-06-26T00:40:05;6.25;;;5.10;;
20203;SDS011;10261;49.010;12.034;2023-06-26T00:41:08;7.13;;;5.55;;
20203;SDS011;10261;49.010;12.034;2023-06-26T00:42:13;8.07;;;5.97;;
20203;SDS011;10261;49.010;12.034;2023-06-26T00:43:16;7.15;;;5.30;;
20203;SDS011;10261;49.010;12.034;2023-06-26T00:44:18;8.07;;;6.18;;
20203;SDS011;10261;49.010;12.034;2023-06-26T00:45:21;10.63;;;5.75;;
20203;SDS011;10261;49.010;12.034;2023-06-26T00:46:38;7.97;;;6.15;;
20203;SDS011;10261;49.010;12.034;2023-06-26T00:47:41;7.13;;;5.15;;
20203;SDS011;10261;49.010;12.034;2023-06-26T00:48:43;7.07;;;5.30;;
20203;SDS011;10261;49.010;12.034;2023-06-26T00:49:48;6.47;;;5.15;;
20203;SDS011;10261;49.010;12.034;2023-06-26T00:50:51;5.78;;;4.78;;
20203;SDS011;10261;49.010;12.034;2023-06-26T00:51:54;11.15;;;6.07;;
20203;SDS011;10261;49.010;12.034;2023-06-26T00:52:56;7.75;;;5.47;;
20203;SDS011;10261;49.010;12.034;2023-06-26T00:54:01;8.13;;;5.78;;
20203;SDS011;10261;49.010;12.034;2023-06-26T00:55:04;9.35;;;6.45;;
20203;SDS011;10261;49.010;12.034;2023-06-26T00:56:07;6.93;;;5.75;;
20203;SDS011;10261;49.010;12.034;2023-06-26T00:57:09;7.68;;;6.80;;
20203;SDS011;10261;49.010;12.034;2023-06-26T00:58:12;8.02;;;5.93;;
20203;SDS011;10261;49.010;12.034;2023-06-26T00:59:14;13.52;;;6.05;;
20203;SDS011;10261;49.010;12.034;2023-06-26T01:00:17;11.52;;;6.00;;
20203;SDS011;10261;49.010;12.034;2023-06-26T01:01:20;6.95;;;5.55;;
20203;SDS011;10261;49.010;12.034;2023-06-26T01:02:26;8.10;;;5.70;;
20203;SDS011;10261;49.010;12.034;2023-06-26T01:03:34;8.02;;;6.18;;
20203;SDS011;10261;49.010;12.034;2023-06-26T01:04:41;6.45;;;5.00;;
20203;SDS011;10261;49.010;12.034;2023-06-26T01:05:47;8.60;;;6.57;;
20203;SDS011;10261;49.010;12.034;2023-06-26T01:06:52;6.95;;;5.80;;
20203;SDS011;10261;49.010;12.034;2023-06-26T01:07:56;7.13;;;5.95;;
20203;SDS011;10261;49.010;12.034;2023-06-26T01:09:00;8.52;;;5.72;;
20203;SDS011;10261;49.010;12.034;2023-06-26T01:10:03;7.50;;;5.60;;
20203;SDS011;10261;49.010;12.034;2023-06-26T01:11:07;7.82;;;5.80;;
20203;SDS011;10261;49.010;12.034;2023-06-26T01:12:09;9.00;;;6.53;;
20203;SDS011;10261;49.010;12.034;2023-06-26T01:13:12;7.05;;;5.97;;
20203;SDS011;10261;49.010;12.034;2023-06-26T01:14:14;7.95;;;6.00;;
20203;SDS011;10261;49.010;12.034;2023-06-26T01:15:17;8.05;;;5.70;;
20203;SDS011;10261;49.010;12.034;2023-06-26T01:16:19;6.72;;;5.85;;
20203;SDS011;10261;49.010;12.034;2023-06-26T01:17:23;10.02;;;5.88;;
20203;SDS011;10261;49.010;12.034;2023-06-26T01:18:25;7.68;;;6.05;;
20203;SDS011;10261;49.010;12.034;2023-06-26T01:19:30;8.68;;;5.53;;
20203;SDS011;10261;49.010;12.034;2023-06-26T01:20:35;6.38;;;4.82;;
20203;SDS011;10261;49.010;12.034;2023-06-26T01:21:43;7.65;;;5.45;;
20203;SDS011;10261;49.010;12.034;2023-06-26T01:22:53;5.55;;;4.82;;
20203;SDS011;10261;49.010;12.034;2023-06-26T01:24:09;7.95;;;6.00;;
20203;SDS011;10261;49.010;12.034;2023-06-26T01:25:23;7.30;;;5.55;;
20203;SDS011;10261;49.010;12.034;2023-06-26T01:26:41;7.30;;;5.80;;
20203;SDS011;10261;49.010;12.034;2023-06-26T01:27:44;9.02;;;6.10;;
20203;SDS011;10261;49.010;12.034;2023-06-26T01:28:49;7.22;;;5.82;;
20203;SDS011;10261;49.010;12.034;2023-06-26T01:29:52;9.15;;;5.10;;
20203;SDS011;10261;49.010;12.034;2023-06-26T01:30:56;11.98;;;5.50;;
20203;SDS011;10261;49.010;12.034;2023-06-26T01:32:00;7.53;;;5.95;;
20203;SDS011;10261;49.010;12.034;2023-06-26T01:33:03;7.75;;;5.65;;
20203;SDS011;10261;49.010;12.034;2023-06-26T01:34:06;6.35;;;4.78;;
20203;SDS011;10261;49.010;12.034;2023-06-26T01:35:09;5.95;;;5.25;;
20203;SDS011;10261;49.010;12.034;2023-06-26T01:36:12;6.68;;;5.18;;
20203;SDS011;10261;49.010;12.034;2023-06-26T01:37:16;9.43;;;6.28;;
20203;SDS011;10261;49.010;12.034;2023-06-26T01:38:18;7.88;;;6.43;;
20203;SDS011;10261;49.010;12.034;2023-06-26T01:39:24;7.20;;;5.65;;
20203;SDS011;10261;49.010;12.034;2023-06-26T01:40:26;8.18;;;6.07;;
20203;SDS011;10261;49.010;12.034;2023-06-26T01:41:29;6.22;;;5.50;;
20203;SDS011;10261;49.010;12.034;2023-06-26T01:42:33;6.95;;;5.63;;
20203;SDS011;10261;49.010;12.034;2023-06-26T01:43:39;6.43;;;5.35;;
20203;SDS011;10261;49.010;12.034;2023-06-26T01:44:51;6.00;;;4.90;;
20203;SDS011;10261;49.010;12.034;2023-06-26T01:45:58;6.47;;;5.18;;
20203;SDS011;10261;49.010;12.034;2023-06-26T01:47:04;9.20;;;6.28;;
20203;SDS011;10261;49.010;12.034;2023-06-26T01:48:08;8.15;;;5.55;;
20203;SDS011;10261;49.010;12.034;2023-06-26T01:49:15;10.40;;;5.90;;
20203;SDS011;10261;49.010;12.034;2023-06-26T01:50:24;7.57;;;5.72;;
20203;SDS011;10261;49.010;12.034;2023-06-26T01:51:30;7.47;;;5.80;;
20203;SDS011;10261;49.010;12.034;2023-06-26T01:52:37;10.68;;;6.10;;
20203;SDS011;10261;49.010;12.034;2023-06-26T01:53:45;8.75;;;6.30;;
20203;SDS011;10261;49.010;12.034;2023-06-26T01:54:54;7.53;;;5.57;;
20203;SDS011;10261;49.010;12.034;2023-06-26T01:56:00;9.43;;;6.43;;
20203;SDS011;10261;49.010;12.034;2023-06-26T01:57:09;7.18;;;6.10;;
20203;SDS011;10261;49.010;12.034;2023-06-26T01:58:13;6.85;;;5.38;;
20203;SDS011;10261;49.010;12.034;2023-06-26T01:59:19;6.63;;;5.03;;
20203;SDS011;10261;49.010;12.034;2023-06-26T02:00:23;6.65;;;5.43;;
20203;SDS011;10261;49.010;12.034;2023-06-26T02:01:27;9.27;;;4.85;;
20203;SDS011;10261;49.010;12.034;2023-06-26T02:02:29;9.32;;;6.35;;
20203;SDS011;10261;49.010;12.034;2023-06-26T02:03:32;8.77;;;6.13;;
20203;SDS011;10261;49.010;12.034;2023-06-26T02:04:35;6.85;;;5.43;;
20203;SDS011;10261;49.010;12.034;2023-06-26T02:05:38;7.43;;;5.65;;
20203;SDS011;10261;49.010;12.034;2023-06-26T02:06:43;8.02;;;5.50;;
20203;SDS011;10261;49.010;12.034;2023-06-26T02:07:45;6.68;;;5.60;;
20203;SDS011;10261;49.010;12.034;2023-06-26T02:08:49;8.45;;;6.15;;
20203;SDS011;10261;49.010;12.034;2023-06-26T02:09:50;6.55;;;5.38;;
20203;SDS011;10261;49.010;12.034;2023-06-26T02:10:53;7.55;;;5.05;;
20203;SDS011;10261;49.010;12.034;2023-06-26T02:11:55;9.77;;;6.03;;
20203;SDS011;10261;49.010;12.034;2023-06-26T02:12:59;12.23;;;6.05;;
20203;SDS011;10261;49.010;12.034;2023-06-26T02:14:03;9.90;;;5.47;;
20203;SDS011;10261;49.010;12.034;2023-06-26T02:15:06;6.88;;;5.85;;
20203;SDS011;10261;49.010;12.034;2023-06-26T02:16:09;8.45;;;5.35;;
20203;SDS011;10261;49.010;12.034;2023-06-26T02:17:12;6.93;;;5.40;;
20203;SDS011;10261;49.010;12.034;2023-06-26T02:18:14;8.88;;;6.60;;
20203;SDS011;10261;49.010;12.034;2023-06-26T02:19:17;7.55;;;5.85;;
20203;SDS011;10261;49.010;12.034;2023-06-26T02:20:23;7.80;;;5.35;;
20203;SDS011;10261;49.010;12.034;2023-06-26T02:21:25;7.30;;;5.40;;
20203;SDS011;10261;49.010;12.034;2023-06-26T02:22:27;8.23;;;5.47;;
20203;SDS011;10261;49.010;12.034;2023-06-26T02:23:30;6.00;;;5.40;;
20203;SDS011;10261;49.010;12.034;2023-06-26T02:24:32;11.80;;;6.30;;
20203;SDS011;10261;49.010;12.034;2023-06-26T02:25:35;6.50;;;5.63;;
20203;SDS011;10261;49.010;12.034;2023-06-26T02:26:37;8.32;;;5.80;;
20203;SDS011;10261;49.010;12.034;2023-06-26T02:27:40;7.97;;;5.93;;
20203;SDS011;10261;49.010;12.034;2023-06-26T02:28:43;7.65;;;5.78;;
20203;SDS011;10261;49.010;12.034;2023-06-26T02:29:48;7.10;;;5.00;;
20203;SDS011;10261;49.010;12.034;2023-06-26T02:30:49;8.15;;;4.65;;
20203;SDS011;10261;49.010;12.034;2023-06-26T02:31:52;9.13;;;5.90;;
20203;SDS011;10261;49.010;12.034;2023-06-26T02:32:55;8.10;;;6.25;;
20203;SDS011;10261;49.010;12.034;2023-06-26T02:33:58;6.97;;;5.40;;
20203;SDS011;10261;49.010;12.034;2023-06-26T02:35:00;9.25;;;5.80;;
20203;SDS011;10261;49.010;12.034;2023-06-26T02:36:03;8.07;;;6.10;;
20203;SDS011;10261;49.010;12.034;2023-06-26T02:37:05;9.68;;;5.85;;
20203;SDS011;10261;49.010;12.034;2023-06-26T02:38:09;8.00;;;5.13;;
20203;SDS011;10261;49.010;12.034;2023-06-26T02:39:11;8.80;;;6.13;;
20203;SDS011;10261;49.010;12.034;2023-06-26T02:40:15;8.25;;;5.80;;
20203;SDS011;10261;49.010;12.034;2023-06-26T02:41:17;6.78;;;5.45;;
20203;SDS011;10261;49.010;12.034;2023-06-26T02:42:20;7.35;;;6.30;;
20203;SDS011;10261;49.010;12.034;2023-06-26T02:43:22;6.82;;;5.65;;
20203;SDS011;10261;49.010;12.034;2023-06-26T02:44:24;9.45;;;6.18;;
20203;SDS011;10261;49.010;12.034;2023-06-26T02:45:29;10.32;;;6.97;;
20203;SDS011;10261;49.010;12.034;2023-06-26T02:46:31;8.70;;;6.28;;
20203;SDS011;10261;49.010;12.034;2023-06-26T02:47:34;10.98;;;5.47;;
20203;SDS011;10261;49.010;12.034;2023-06-26T02:48:38;9.27;;;5.93;;
20203;SDS011;10261;49.010;12.034;2023-06-26T02:49:41;9.30;;;5.88;;
20203;SDS011;10261;49.010;12.034;2023-06-26T02:50:43;9.95;;;5.80;;
20203;SDS011;10261;49.010;12.034;2023-06-26T02:51:47;9.02;;;5.40;;
20203;SDS011;10261;49.010;12.034;2023-06-26T02:52:49;7.15;;;5.60;;
20203;SDS011;10261;49.010;12.034;2023-06-26T02:53:53;8.93;;;5.90;;
20203;SDS011;10261;49.010;12.034;2023-06-26T02:54:55;9.93;;;5.68;;
20203;SDS011;10261;49.010;12.034;2023-06-26T02:55:58;7.05;;;4.80;;
20203;SDS011;10261;49.010;12.034;2023-06-26T02:57:00;9.10;;;5.40;;
20203;SDS011;10261;49.010;12.034;2023-06-26T02:58:03;7.60;;;5.40;;
20203;SDS011;10261;49.010;12.034;2023-06-26T02:59:06;7.10;;;5.72;;
20203;SDS011;10261;49.010;12.034;2023-06-26T03:00:09;11.60;;;6.30;;
20203;SDS011;10261;49.010;12.034;2023-06-26T03:01:13;10.32;;;5.95;;
20203;SDS011;10261;49.010;12.034;2023-06-26T03:02:18;7.63;;;6.15;;
20203;SDS011;10261;49.010;12.034;2023-06-26T03:03:20;6.82;;;5.82;;
20203;SDS011;10261;49.010;12.034;2023-06-26T03:04:23;6.43;;;5.68;;
20203;SDS011;10261;49.010;12.034;2023-06-26T03:05:25;13.90;;;5.65;;
20203;SDS011;10261;49.010;12.034;2023-06-26T03:06:28;7.70;;;5.40;;
20203;SDS011;10261;49.010;12.034;2023-06-26T03:07:30;8.98;;;6.07;;
20203;SDS011;10261;49.010;12.034;2023-06-26T03:08:33;7.25;;;6.18;;
20203;SDS011;10261;49.010;12.034;2023-06-26T03:09:36;7.22;;;5.40;;
20203;SDS011;10261;49.010;12.034;2023-06-26T03:10:39;7.38;;;5.38;;
20203;SDS011;10261;49.010;12.034;2023-06-26T03:11:41;6.65;;;5.18;;
20203;SDS011;10261;49.010;12.034;2023-06-26T03:12:44;7.78;;;5.68;;
20203;SDS011;10261;49.010;12.034;2023-06-26T03:13:46;7.40;;;5.15;;
20203;SDS011;10261;49.010;12.034;2023-06-26T03:14:49;10.10;;;6.20;;
20203;SDS011;10261;49.010;12.034;2023-06-26T03:15:51;8.05;;;6.18;;
20203;SDS011;10261;49.010;12.034;2023-06-26T03:16:55;8.15;;;6.00;;
20203;SDS011;10261;49.010;12.034;2023-06-26T03:17:59;8.05;;;4.95;;
20203;SDS011;10261;49.010;12.034;2023-06-26T03:19:02;7.35;;;5.43;;
20203;SDS011;10261;49.010;12.034;2023-06-26T03:20:06;7.53;;;5.60;;
20203;SDS011;10261;49.010;12.034;2023-06-26T03:21:10;8.02;;;5.97;;
20203;SDS011;10261;49.010;12.034;2023-06-26T03:22:13;10.45;;;6.72;;
20203;SDS011;10261;49.010;12.034;2023-06-26T03:23:15;7.47;;;5.95;;
20203;SDS011;10261;49.010;12.034;2023-06-26T03:24:18;6.65;;;5.35;;
20203;SDS011;10261;49.010;12.034;2023-06-26T03:25:20;7.95;;;5.40;;
20203;SDS011;10261;49.010;12.034;2023-06-26T03:26:23;9.18;;;6.20;;
20203;SDS011;10261;49.010;12.034;2023-06-26T03:27:28;10.00;;;6.18;;
20203;SDS011;10261;49.010;12.034;2023-06-26T03:28:31;6.80;;;5.65;;
20203;SDS011;10261;49.010;12.034;2023-06-26T03:29:33;10.88;;;6.93;;
20203;SDS011;10261;49.010;12.034;2023-06-26T03:30:36;14.60;;;6.22;;
20203;SDS011;10261;49.010;12.034;2023-06-26T03:31:38;9.48;;;6.25;;
20203;SDS011;10261;49.010;12.034;2023-06-26T03:32:43;9.50;;;6.18;;
20203;SDS011;10261;49.010;12.034;2023-06-26T03:33:45;6.93;;;5.40;;
20203;SDS011;10261;49.010;12.034;2023-06-26T03:34:48;7.55;;;5.65;;
20203;SDS011;10261;49.010;12.034;2023-06-26T03:35:49;8.95;;;6.55;;
20203;SDS011;10261;49.010;12.034;2023-06-26T03:36:52;12.63;;;6.72;;
20203;SDS011;10261;49.010;12.034;2023-06-26T03:37:55;10.35;;;7.10;;
20203;SDS011;10261;49.010;12.034;2023-06-26T03:38:58;7.95;;;6.07;;
20203;SDS011;10261;49.010;12.034;2023-06-26T03:40:01;10.45;;;6.18;;
20203;SDS011;10261;49.010;12.034;2023-06-26T03:41:05;6.43;;;5.25;;
20203;SDS011;10261;49.010;12.034;2023-06-26T03:42:08;8.80;;;6.45;;
20203;SDS011;10261;49.010;12.034;2023-06-26T03:43:10;8.65;;;6.15;;
20203;SDS011;10261;49.010;12.034;2023-06-26T03:44:13;9.82;;;6.25;;
20203;SDS011;10261;49.010;12.034;2023-06-26T03:45:15;7.13;;;6.07;;
20203;SDS011;10261;49.010;12.034;2023-06-26T03:46:19;6.05;;;5.32;;
20203;SDS011;10261;49.010;12.034;2023-06-26T03:47:21;9.75;;;6.05;;
20203;SDS011;10261;49.010;12.034;2023-06-26T03:48:25;7.75;;;6.25;;
20203;SDS011;10261;49.010;12.034;2023-06-26T03:49:27;9.48;;;7.50;;
20203;SDS011;10261;49.010;12.034;2023-06-26T03:50:30;8.15;;;6.13;;
20203;SDS011;10261;49.010;12.034;2023-06-26T03:51:32;9.52;;;6.38;;
20203;SDS011;10261;49.010;12.034;2023-06-26T03:52:35;8.50;;;5.88;;
20203;SDS011;10261;49.010;12.034;2023-06-26T03:53:36;7.22;;;6.30;;
20203;SDS011;10261;49.010;12.034;2023-06-26T03:54:39;9.40;;;6.15;;
20203;SDS011;10261;49.010;12.034;2023-06-26T03:55:41;8.98;;;6.32;;
20203;SDS011;10261;49.010;12.034;2023-06-26T03:56:44;12.45;;;6.22;;
20203;SDS011;10261;49.010;12.034;2023-06-26T03:57:46;7.20;;;6.18;;
20203;SDS011;10261;49.010;12.034;2023-06-26T03:58:49;7.20;;;5.57;;
20203;SDS011;10261;49.010;12.034;2023-06-26T03:59:51;7.97;;;5.30;;
20203;SDS011;10261;49.010;12.034;2023-06-26T04:00:54;8.52;;;5.97;;
20203;SDS011;10261;49.010;12.034;2023-06-26T04:01:57;7.75;;;5.45;;
20203;SDS011;10261;49.010;12.034;2023-06-26T04:03:00;10.52;;;5.78;;
20203;SDS011;10261;49.010;12.034;2023-06-26T04:04:03;8.85;;;6.32;;
20203;SDS011;10261;49.010;12.034;2023-06-26T04:05:06;7.88;;;5.07;;
20203;SDS011;10261;49.010;12.034;2023-06-26T04:06:08;7.75;;;6.03;;
20203;SDS011;10261;49.010;12.034;2023-06-26T04:07:11;7.38;;;6.28;;
20203;SDS011;10261;49.010;12.034;2023-06-26T04:08:13;8.35;;;5.90;;
20203;SDS011;10261;49.010;12.034;2023-06-26T04:09:16;8.52;;;6.07;;
20203;SDS011;10261;49.010;12.034;2023-06-26T04:10:18;9.02;;;6.38;;
20203;SDS011;10261;49.010;12.034;2023-06-26T04:11:22;11.05;;;6.20;;
20203;SDS011;10261;49.010;12.034;2023-06-26T04:12:24;7.10;;;5.80;;
20203;SDS011;10261;49.010;12.034;2023-06-26T04:13:26;7.82;;;5.40;;
20203;SDS011;10261;49.010;12.034;2023-06-26T04:14:28;9.20;;;6.68;;
20203;SDS011;10261;49.010;12.034;2023-06-26T04:15:31;8.68;;;5.43;;
20203;SDS011;10261;49.010;12.034;2023-06-26T04:16:33;8.25;;;5.75;;
20203;SDS011;10261;49.010;12.034;2023-06-26T04:17:36;7.70;;;5.95;;
20203;SDS011;10261;49.010;12.034;2023-06-26T04:18:38;10.05;;;5.90;;
20203;SDS011;10261;49.010;12.034;2023-06-26T04:19:42;7.07;;;5.80;;
20203;SDS011;10261;49.010;12.034;2023-06-26T04:21:04;6.97;;;5.40;;
20203;SDS011;10261;49.010;12.034;2023-06-26T04:22:12;8.32;;;6.72;;
20203;SDS011;10261;49.010;12.034;2023-06-26T04:23:14;7.47;;;5.68;;
20203;SDS011;10261;49.010;12.034;2023-06-26T04:24:17;9.00;;;6.88;;
20203;SDS011;10261;49.010;12.034;2023-06-26T04:25:19;6.95;;;5.03;;
20203;SDS011;10261;49.010;12.034;2023-06-26T04:26:22;8.40;;;5.70;;
20203;SDS011;10261;49.010;12.034;2023-06-26T04:27:24;9.43;;;6.32;;
20203;SDS011;10261;49.010;12.034;2023-06-26T04:28:27;11.05;;;6.00;;
20203;SDS011;10261;49.010;12.034;2023-06-26T04:29:29;7.10;;;5.93;;
20203;SDS011;10261;49.010;12.034;2023-06-26T04:30:31;19.50;;;6.55;;
20203;SDS011;10261;49.010;12.034;2023-06-26T04:31:33;8.80;;;6.35;;
20203;SDS011;10261;49.010;12.034;2023-06-26T04:32:36;10.43;;;6.10;;
20203;SDS011;10261;49.010;12.034;2023-06-26T04:33:38;8.80;;;6.28;;
20203;SDS011;10261;49.010;12.034;2023-06-26T04:34:45;7.35;;;5.85;;
20203;SDS011;10261;49.010;12.034;2023-06-26T04:35:47;10.40;;;7.70;;
20203;SDS011;10261;49.010;12.034;2023-06-26T04:36:50;8.98;;;6.35;;
20203;SDS011;10261;49.010;12.034;2023-06-26T04:37:52;12.10;;;6.63;;
20203;SDS011;10261;49.010;12.034;2023-06-26T04:38:55;7.80;;;6.18;;
20203;SDS011;10261;49.010;12.034;2023-06-26T04:39:57;11.15;;;7.03;;
20203;SDS011;10261;49.010;12.034;2023-06-26T04:41:00;9.68;;;6.68;;
20203;SDS011;10261;49.010;12.034;2023-06-26T04:42:02;7.47;;;5.72;;
20203;SDS011;10261;49.010;12.034;2023-06-26T04:43:05;8.55;;;6.50;;
20203;SDS011;10261;49.010;12.034;2023-06-26T04:44:07;12.32;;;6.30;;
20203;SDS011;10261;49.010;12.034;2023-06-26T04:45:10;10.05;;;6.00;;
20203;SDS011;10261;49.010;12.034;2023-06-26T04:46:12;6.80;;;5.28;;
20203;SDS011;10261;49.010;12.034;2023-06-26T04:47:15;8.15;;;6.05;;
20203;SDS011;10261;49.010;12.034;2023-06-26T04:48:17;10.07;;;6.82;;
20203;SDS011;10261;49.010;12.034;2023-06-26T04:49:20;9.73;;;7.32;;
20203;SDS011;10261;49.010;12.034;2023-06-26T04:50:24;6.03;;;5.25;;
20203;SDS011;10261;49.010;12.034;2023-06-26T04:51:27;9.10;;;6.70;;
20203;SDS011;10261;49.010;12.034;2023-06-26T04:52:30;7.43;;;6.50;;
20203;SDS011;10261;49.010;12.034;2023-06-26T04:53:33;7.30;;;6.45;;
20203;SDS011;10261;49.010;12.034;2023-06-26T04:54:34;7.80;;;6.22;;
20203;SDS011;10261;49.010;12.034;2023-06-26T04:55:37;9.00;;;6.35;;
20203;SDS011;10261;49.010;12.034;2023-06-26T04:56:40;8.95;;;6.68;;
20203;SDS011;10261;49.010;12.034;2023-06-26T04:57:43;9.20;;;7.25;;
20203;SDS011;10261;49.010;12.034;2023-06-26T04:58:44;7.70;;;5.65;;
20203;SDS011;10261;49.010;12.034;2023-06-26T04:59:48;8.25;;;6.18;;
20203;SDS011;10261;49.010;12.034;2023-06-26T05:00:50;7.72;;;6.57;;
20203;SDS011;10261;49.010;12.034;2023-06-26T05:01:52;10.63;;;6.88;;
20203;SDS011;10261;49.010;12.034;2023-06-26T05:02:55;8.75;;;7.18;;
20203;SDS011;10261;49.010;12.034;2023-06-26T05:04:02;12.48;;;7.20;;
20203;SDS011;10261;49.010;12.034;2023-06-26T05:05:05;9.50;;;7.40;;
20203;SDS011;10261;49.010;12.034;2023-06-26T05:06:09;9.00;;;6.68;;
20203;SDS011;10261;49.010;12.034;2023-06-26T05:07:12;8.57;;;6.43;;
20203;SDS011;10261;49.010;12.034;2023-06-26T05:08:14;7.88;;;6.40;;
20203;SDS011;10261;49.010;12.034;2023-06-26T05:09:18;11.05;;;7.55;;
20203;SDS011;10261;49.010;12.034;2023-06-26T05:10:20;8.45;;;6.63;;
20203;SDS011;10261;49.010;12.034;2023-06-26T05:11:24;9.20;;;6.93;;
20203;SDS011;10261;49.010;12.034;2023-06-26T05:12:25;10.60;;;6.68;;
20203;SDS011;10261;49.010;12.034;2023-06-26T05:13:28;8.07;;;5.85;;
20203;SDS011;10261;49.010;12.034;2023-06-26T05:14:30;7.50;;;5.63;;
20203;SDS011;10261;49.010;12.034;2023-06-26T05:15:33;8.02;;;6.80;;
20203;SDS011;10261;49.010;12.034;2023-06-26T05:16:35;10.25;;;6.88;;
20203;SDS011;10261;49.010;12.034;2023-06-26T05:17:38;8.35;;;6.20;;
20203;SDS011;10261;49.010;12.034;2023-06-26T05:18:40;9.95;;;6.10;;
20203;SDS011;10261;49.010;12.034;2023-06-26T05:19:44;12.30;;;7.85;;
20203;SDS011;10261;49.010;12.034;2023-06-26T05:20:47;7.03;;;6.05;;
20203;SDS011;10261;49.010;12.034;2023-06-26T05:21:51;9.07;;;7.20;;
20203;SDS011;10261;49.010;12.034;2023-06-26T05:22:54;9.75;;;7.20;;
20203;SDS011;10261;49.010;12.034;2023-06-26T05:23:57;8.98;;;6.70;;
20203;SDS011;10261;49.010;12.034;2023-06-26T05:25:01;10.48;;;7.28;;
20203;SDS011;10261;49.010;12.034;2023-06-26T05:26:06;11.32;;;7.28;;
20203;SDS011;10261;49.010;12.034;2023-06-26T05:27:09;8.60;;;7.10;;
20203;SDS011;10261;49.010;12.034;2023-06-26T05:28:20;14.32;;;7.40;;
20203;SDS011;10261;49.010;12.034;2023-06-26T05:29:26;11.43;;;8.07;;
20203;SDS011;10261;49.010;12.034;2023-06-26T05:30:28;9.55;;;7.05;;
20203;SDS011;10261;49.010;12.034;2023-06-26T05:31:32;9.80;;;6.68;;
20203;SDS011;10261;49.010;12.034;2023-06-26T05:32:41;11.57;;;7.45;;
20203;SDS011;10261;49.010;12.034;2023-06-26T05:33:46;9.38;;;6.85;;
20203;SDS011;10261;49.010;12.034;2023-06-26T05:34:49;10.18;;;7.10;;
20203;SDS011;10261;49.010;12.034;2023-06-26T05:35:56;12.93;;;8.50;;
20203;SDS011;10261;49.010;12.034;2023-06-26T05:37:02;17.02;;;8.07;;
20203;SDS011;10261;49.010;12.034;2023-06-26T05:38:05;10.40;;;7.32;;
20203;SDS011;10261;49.010;12.034;2023-06-26T05:39:08;12.48;;;8.70;;
20203;SDS011;10261;49.010;12.034;2023-06-26T05:40:11;11.07;;;8.88;;
20203;SDS011;10261;49.010;12.034;2023-06-26T05:41:15;12.23;;;8.95;;
20203;SDS011;10261;49.010;12.034;2023-06-26T05:42:18;12.95;;;7.97;;
20203;SDS011;10261;49.010;12.034;2023-06-26T05:43:21;11.88;;;9.00;;
20203;SDS011;10261;49.010;12.034;2023-06-26T05:44:29;10.95;;;8.73;;
20203;SDS011;10261;49.010;12.034;2023-06-26T05:45:31;11.40;;;8.68;;
20203;SDS011;10261;49.010;12.034;2023-06-26T05:46:33;11.85;;;8.60;;
20203;SDS011;10261;49.010;12.034;2023-06-26T05:47:36;11.48;;;8.18;;
20203;SDS011;10261;49.010;12.034;2023-06-26T05:48:39;9.85;;;8.00;;
20203;SDS011;10261;49.010;12.034;2023-06-26T05:49:42;11.00;;;7.82;;
20203;SDS011;10261;49.010;12.034;2023-06-26T05:50:44;13.02;;;8.52;;
20203;SDS011;10261;49.010;12.034;2023-06-26T05:51:47;14.45;;;7.88;;
20203;SDS011;10261;49.010;12.034;2023-06-26T05:52:51;13.13;;;8.50;;
20203;SDS011;10261;49.010;12.034;2023-06-26T05:53:55;10.10;;;7.43;;
20203;SDS011;10261;49.010;12.034;2023-06-26T05:54:57;11.02;;;8.57;;
20203;SDS011;10261;49.010;12.034;2023-06-26T05:56:01;10.80;;;8.18;;
20203;SDS011;10261;49.010;12.034;2023-06-26T05:57:04;11.27;;;7.60;;
20203;SDS011;10261;49.010;12.034;2023-06-26T05:58:07;11.05;;;8.35;;
20203;SDS011;10261;49.010;12.034;2023-06-26T05:59:11;9.93;;;7.57;;
20203;SDS011;10261;49.010;12.034;2023-06-26T06:00:17;10.75;;;7.80;;
20203;SDS011;10261;49.010;12.034;2023-06-26T06:01:19;9.82;;;7.38;;
20203;SDS011;10261;49.010;12.034;2023-06-26T06:02:22;11.20;;;9.43;;
20203;SDS011;10261;49.010;12.034;2023-06-26T06:03:24;10.77;;;7.90;;
20203;SDS011;10261;49.010;12.034;2023-06-26T06:04:27;10.30;;;7.63;;
20203;SDS011;10261;49.010;12.034;2023-06-26T06:05:29;11.30;;;8.57;;
20203;SDS011;10261;49.010;12.034;2023-06-26T06:06:32;10.90;;;8.75;;
20203;SDS011;10261;49.010;12.034;2023-06-26T06:07:34;9.25;;;7.28;;
20203;SDS011;10261;49.010;12.034;2023-06-26T06:08:39;11.07;;;7.88;;
20203;SDS011;10261;49.010;12.034;2023-06-26T06:09:42;13.50;;;8.57;;
20203;SDS011;10261;49.010;12.034;2023-06-26T06:10:44;13.02;;;8.68;;
20203;SDS011;10261;49.010;12.034;2023-06-26T06:11:47;10.43;;;7.82;;
20203;SDS011;10261;49.010;12.034;2023-06-26T06:12:49;10.35;;;8.27;;
20203;SDS011;10261;49.010;12.034;2023-06-26T06:13:52;12.77;;;8.98;;
20203;SDS011;10261;49.010;12.034;2023-06-26T06:14:55;11.05;;;8.00;;